Time;durP1;ratioP1;P1;durP2;ratioP2;P2;SDS_P1;SDS_P2;PMS_P1;PMS_P2;Temp;Humidity;BMP_temperature;BMP_pressure;BME280_temperature;BME280_humidity;BME280_pressure;Samples;Min_cycle;Max_cycle;Signal;HPM_P1;HPM_P2
2023/04/14 00:00:41;;;;;;;19.15;8.90;;;13.60;99.90;;;;;;4895427;29;20045;-75
2023/04/14 00:03:09;;;;;;;16.05;8.05;;;13.70;99.90;;;;;;4894938;29;20045;-76
2023/04/14 00:05:38;;;;;;;16.20;8.32;;;13.90;99.90;;;;;;4894060;29;20084;-75
2023/04/14 00:08:05;;;;;;;22.60;9.00;;;14.00;99.90;;;;;;4893446;29;20061;-75
2023/04/14 00:10:32;;;;;;;20.80;9.43;;;14.10;99.90;;;;;;4894452;29;20060;-76
2023/04/14 00:13:00;;;;;;;22.27;9.70;;;14.10;99.90;;;;;;4895254;29;20119;-75
2023/04/14 00:15:28;;;;;;;34.80;19.67;;;14.20;99.90;;;;;;4894293;29;20060;-76
2023/04/14 00:17:55;;;;;;;21.77;10.70;;;14.10;99.90;;;;;;4892779;29;20048;-75
2023/04/14 00:20:24;;;;;;;20.20;8.15;;;14.30;99.90;;;;;;4894689;29;20041;-75
2023/04/14 00:22:53;;;;;;;20.10;8.50;;;14.50;99.90;;;;;;4894537;29;20066;-76
2023/04/14 00:25:20;;;;;;;16.40;7.78;;;14.50;99.90;;;;;;4906138;29;20048;-75
2023/04/14 00:27:47;;;;;;;15.00;6.93;;;14.60;95.00;;;;;;4908688;29;20040;-74
2023/04/14 00:30:15;;;;;;;12.25;5.88;;;14.70;98.50;;;;;;4878867;29;20045;-76
2023/04/14 00:32:43;;;;;;;15.85;5.68;;;14.80;92.20;;;;;;4900697;29;20104;-74
2023/04/14 00:35:10;;;;;;;14.88;4.55;;;14.90;88.30;;;;;;4908631;29;20127;-75
2023/04/14 00:37:38;;;;;;;12.02;5.13;;;15.00;84.20;;;;;;4891844;29;20104;-77
2023/04/14 00:40:10;;;;;;;12.23;5.22;;;15.10;81.70;;;;;;4901619;29;20040;-75
2023/04/14 00:42:43;;;;;;;13.57;4.35;;;15.20;81.30;;;;;;4896607;29;20040;-75
2023/04/14 00:45:11;;;;;;;11.43;4.72;;;15.40;78.80;;;;;;4895948;29;20432;-74
2023/04/14 00:47:40;;;;;;;11.68;4.57;;;15.40;76.80;;;;;;4898007;29;20432;-76
2023/04/14 00:50:09;;;;;;;8.73;3.95;;;15.50;75.50;;;;;;4893046;29;20049;-75
2023/04/14 00:52:39;;;;;;;10.80;4.07;;;15.60;73.00;;;;;;4893894;29;20077;-76
2023/04/14 00:55:09;;;;;;;12.07;4.82;;;15.70;71.00;;;;;;4876334;29;20167;-77
2023/04/14 00:57:37;;;;;;;10.32;4.28;;;15.80;70.30;;;;;;4894900;29;20553;-74
2023/04/14 01:00:05;;;;;;;13.65;3.90;;;16.00;68.20;;;;;;4895079;29;20048;-75
2023/04/14 01:02:34;;;;;;;9.90;3.30;;;16.10;66.40;;;;;;4894315;29;20584;-75
2023/04/14 01:05:02;;;;;;;11.07;3.20;;;16.30;64.70;;;;;;4883826;29;20044;-75
2023/04/14 01:07:29;;;;;;;10.82;3.00;;;16.40;63.80;;;;;;4900008;29;20040;-74
2023/04/14 01:09:59;;;;;;;12.95;3.65;;;16.50;63.00;;;;;;4911447;29;20048;-75
2023/04/14 01:12:40;;;;;;;9.48;4.03;;;16.50;62.60;;;;;;4900362;29;20509;-75
2023/04/14 01:15:15;;;;;;;8.80;3.67;;;16.50;62.10;;;;;;4898434;29;20060;-76
2023/04/14 01:17:49;;;;;;;9.88;3.67;;;16.50;61.40;;;;;;4878692;29;20438;-75
2023/04/14 01:20:26;;;;;;;11.85;3.58;;;16.60;61.20;;;;;;4879787;29;20044;-76
2023/04/14 01:22:58;;;;;;;13.02;3.75;;;16.70;60.80;;;;;;4896084;29;20063;-77
2023/04/14 01:26:02;;;;;;;9.48;3.40;;;16.60;60.40;;;;;;4897269;29;20052;-76
2023/04/14 01:28:49;;;;;;;9.55;4.80;;;16.60;61.20;;;;;;4880372;29;20045;-77
2023/04/14 01:31:26;;;;;;;10.55;3.30;;;16.60;62.10;;;;;;4895492;29;20045;-77
2023/04/14 01:34:03;;;;;;;11.13;2.80;;;16.50;63.20;;;;;;4879795;29;20056;-76
2023/04/14 01:36:40;;;;;;;13.25;3.38;;;16.50;63.10;;;;;;4896487;29;20493;-76
2023/04/14 01:39:11;;;;;;;9.57;3.10;;;16.60;62.40;;;;;;4882405;29;20104;-75
2023/04/14 01:41:43;;;;;;;12.02;4.05;;;16.60;61.60;;;;;;4882874;29;20065;-74
2023/04/14 01:44:12;;;;;;;8.80;3.10;;;16.60;64.40;;;;;;4882705;29;20037;-77
2023/04/14 01:46:42;;;;;;;11.50;3.35;;;16.50;64.00;;;;;;4881348;29;20056;-77
2023/04/14 01:49:11;;;;;;;15.30;3.00;;;16.40;65.30;;;;;;4898937;29;20047;-76
2023/04/14 01:51:42;;;;;;;13.32;3.00;;;16.40;66.60;;;;;;4880697;29;20049;-77
2023/04/14 01:54:13;;;;;;;8.10;3.10;;;16.30;67.90;;;;;;4899046;29;20054;-75
2023/04/14 01:56:43;;;;;;;12.48;3.63;;;16.30;68.10;;;;;;4880385;29;20097;-75
2023/04/14 01:59:11;;;;;;;10.82;2.95;;;16.20;68.70;;;;;;4878642;29;20494;-74
2023/04/14 02:01:43;;;;;;;10.23;3.90;;;16.20;69.60;;;;;;4883000;29;20060;-74
2023/04/14 02:04:11;;;;;;;11.82;3.08;;;16.10;69.70;;;;;;4903021;29;20080;-74
2023/04/14 02:06:41;;;;;;;10.73;3.40;;;16.10;70.30;;;;;;4889224;29;20053;-77
2023/04/14 02:09:11;;;;;;;11.95;3.90;;;16.10;71.60;;;;;;4880923;29;20061;-74
2023/04/14 02:11:41;;;;;;;13.95;4.20;;;16.10;73.90;;;;;;4879420;29;20097;-76
2023/04/14 02:14:11;;;;;;;9.35;3.97;;;16.00;75.60;;;;;;4895859;29;20075;-77
2023/04/14 02:16:39;;;;;;;12.98;3.70;;;16.00;78.50;;;;;;4877141;29;20053;-73
2023/04/14 02:19:09;;;;;;;10.82;3.40;;;15.90;81.60;;;;;;4894102;29;20036;-75
2023/04/14 02:21:38;;;;;;;12.10;3.75;;;15.90;83.00;;;;;;4897165;29;20052;-76
2023/04/14 02:24:07;;;;;;;12.02;4.00;;;15.80;85.90;;;;;;4895904;29;20049;-76
2023/04/14 02:26:38;;;;;;;17.08;4.75;;;15.80;96.00;;;;;;4895599;29;20056;-76
2023/04/14 02:29:11;;;;;;;12.68;6.78;;;15.80;99.90;;;;;;4878411;29;20048;-76
2023/04/14 02:31:43;;;;;;;21.08;8.20;;;15.70;99.90;;;;;;4879270;29;20049;-76
2023/04/14 02:34:14;;;;;;;21.35;8.93;;;15.50;99.90;;;;;;4878322;29;20064;-75
2023/04/14 02:36:46;;;;;;;21.40;8.35;;;15.10;99.90;;;;;;4878733;29;20085;-76
2023/04/14 02:39:17;;;;;;;14.90;8.27;;;14.60;99.90;;;;;;4895776;29;20052;-74
2023/04/14 02:41:47;;;;;;;22.30;10.00;;;14.20;99.90;;;;;;4894915;29;20045;-75
2023/04/14 02:44:20;;;;;;;19.70;9.35;;;13.90;99.90;;;;;;4889759;29;20084;-75
2023/04/14 02:46:56;;;;;;;21.92;11.55;;;13.70;99.90;;;;;;4879675;29;20048;-75
2023/04/14 02:49:26;;;;;;;20.33;10.32;;;13.40;99.90;;;;;;4881498;29;20523;-74
2023/04/14 02:51:56;;;;;;;19.13;11.02;;;13.20;99.90;;;;;;4886345;29;20100;-75
2023/04/14 02:54:24;;;;;;;18.33;10.68;;;12.90;99.90;;;;;;4880617;29;20072;-75
2023/04/14 02:56:52;;;;;;;21.52;11.50;;;12.60;99.90;;;;;;4889035;29;20073;-76
2023/04/14 02:59:26;;;;;;;21.38;12.18;;;12.50;99.90;;;;;;4902389;29;20068;-74
2023/04/14 03:02:01;;;;;;;23.55;12.02;;;12.40;99.90;;;;;;4894201;29;20083;-76
2023/04/14 03:04:32;;;;;;;19.60;12.57;;;12.30;99.90;;;;;;4879674;29;20112;-77
2023/04/14 03:07:02;;;;;;;19.45;13.32;;;12.20;99.90;;;;;;4879312;29;20048;-77
2023/04/14 03:09:31;;;;;;;20.35;13.15;;;12.10;99.90;;;;;;4881432;29;20049;-75
2023/04/14 03:12:01;;;;;;;21.33;13.93;;;12.10;99.90;;;;;;4880766;29;20045;-74
2023/04/14 03:14:31;;;;;;;21.23;14.10;;;12.00;99.90;;;;;;4878737;29;20052;-76
2023/04/14 03:16:59;;;;;;;26.80;13.65;;;12.00;99.90;;;;;;4895090;29;20128;-76
2023/04/14 03:19:31;;;;;;;17.98;12.02;;;11.90;99.90;;;;;;4895192;29;20095;-78
2023/04/14 03:22:02;;;;;;;18.27;10.43;;;11.80;99.90;;;;;;4878347;29;20049;-75
2023/04/14 03:24:34;;;;;;;15.70;8.85;;;11.60;99.90;;;;;;4881730;29;20136;-76
2023/04/14 03:27:06;;;;;;;13.68;7.30;;;11.60;99.90;;;;;;4912875;29;20049;-77
2023/04/14 03:29:39;;;;;;;13.60;6.78;;;11.40;99.90;;;;;;4898416;29;20056;-74
2023/04/14 03:32:08;;;;;;;11.30;5.70;;;11.30;99.90;;;;;;4879545;29;20041;-74
2023/04/14 03:34:45;;;;;;;12.10;5.28;;;11.20;99.90;;;;;;4879913;29;20051;-75
2023/04/14 03:37:17;;;;;;;8.13;4.53;;;11.00;99.90;;;;;;4895925;29;20052;-75
2023/04/14 03:39:50;;;;;;;11.07;5.57;;;11.00;99.90;;;;;;4899950;29;20044;-74
2023/04/14 03:42:20;;;;;;;11.32;4.80;;;10.90;99.90;;;;;;4885024;29;20140;-75
2023/04/14 03:44:53;;;;;;;10.23;5.05;;;10.90;99.90;;;;;;4888433;29;20045;-77
2023/04/14 03:47:23;;;;;;;10.77;5.40;;;10.90;99.90;;;;;;4912742;29;20076;-77
2023/04/14 03:49:56;;;;;;;9.07;5.30;;;10.80;99.90;;;;;;4891803;29;20076;-75
2023/04/14 03:52:25;;;;;;;17.13;9.48;;;10.90;99.90;;;;;;4881468;29;20060;-75
2023/04/14 03:54:58;;;;;;;14.38;9.32;;;11.00;99.90;;;;;;4898629;29;20117;-75
2023/04/14 03:57:28;;;;;;;25.85;22.92;;;11.00;99.90;;;;;;4898315;29;20053;-74
2023/04/14 03:59:57;;;;;;;12.13;7.63;;;11.00;99.90;;;;;;4895782;29;20057;-74
2023/04/14 04:02:27;;;;;;;12.88;7.07;;;11.00;99.90;;;;;;4877056;29;20036;-75
2023/04/14 04:04:57;;;;;;;11.90;7.63;;;11.00;99.90;;;;;;4877777;29;20493;-76
2023/04/14 04:07:27;;;;;;;14.95;7.68;;;11.00;99.90;;;;;;4894585;29;20053;-75
2023/04/14 04:09:57;;;;;;;15.75;7.72;;;11.00;99.90;;;;;;4894086;29;20402;-75
2023/04/14 04:12:26;;;;;;;15.20;9.60;;;11.00;99.90;;;;;;4876375;29;20044;-75
2023/04/14 04:14:53;;;;;;;19.75;10.73;;;11.00;99.90;;;;;;4878515;29;20096;-76
2023/04/14 04:17:24;;;;;;;17.63;11.50;;;11.00;99.90;;;;;;4878035;29;20047;-76
2023/04/14 04:19:54;;;;;;;18.48;11.73;;;10.90;99.90;;;;;;4877384;29;20048;-76
2023/04/14 04:22:26;;;;;;;18.90;10.02;;;10.90;99.90;;;;;;4878527;29;20196;-76
2023/04/14 04:24:56;;;;;;;19.13;10.45;;;10.90;99.90;;;;;;4888723;29;20062;-76
2023/04/14 04:27:28;;;;;;;16.23;10.65;;;10.80;99.90;;;;;;4903913;29;20064;-75
2023/04/14 04:30:07;;;;;;;16.95;10.82;;;10.80;99.90;;;;;;4878893;29;20100;-75
2023/04/14 04:32:36;;;;;;;18.30;11.15;;;10.80;99.90;;;;;;4878699;29;20044;-75
2023/04/14 04:35:06;;;;;;;20.05;13.38;;;10.80;99.90;;;;;;4878909;29;20254;-75
2023/04/14 04:37:35;;;;;;;18.23;12.80;;;10.90;99.90;;;;;;4895624;29;20041;-73
2023/04/14 04:40:03;;;;;;;19.85;12.15;;;10.90;99.90;;;;;;4889588;29;20063;-75
2023/04/14 04:42:31;;;;;;;15.82;10.70;;;10.80;99.90;;;;;;4885212;29;20049;-74
2023/04/14 04:44:59;;;;;;;17.52;11.18;;;10.70;99.90;;;;;;4895108;29;20051;-75
2023/04/14 04:47:27;;;;;;;18.77;12.40;;;10.70;99.90;;;;;;4895132;29;20040;-75
2023/04/14 04:49:54;;;;;;;17.52;10.77;;;10.70;99.90;;;;;;4877792;29;20049;-76
2023/04/14 04:52:25;;;;;;;19.52;11.90;;;10.60;99.90;;;;;;4894718;29;20045;-76
2023/04/14 04:54:54;;;;;;;18.83;13.75;;;10.60;99.90;;;;;;4894396;29;20049;-75
2023/04/14 04:57:22;;;;;;;18.85;13.07;;;10.50;99.90;;;;;;4893215;29;20485;-75
2023/04/14 04:59:49;;;;;;;25.15;14.43;;;10.50;99.90;;;;;;4894765;29;20045;-75
2023/04/14 05:02:16;;;;;;;26.45;15.23;;;10.50;99.90;;;;;;4897336;29;20045;-75
2023/04/14 05:04:44;;;;;;;24.77;15.48;;;10.50;99.90;;;;;;4904712;29;20044;-74
2023/04/14 05:07:11;;;;;;;22.15;12.27;;;10.50;99.90;;;;;;4884071;29;20051;-75
2023/04/14 05:09:41;;;;;;;25.13;15.05;;;10.40;99.90;;;;;;4900827;29;20059;-77
2023/04/14 05:12:09;;;;;;;24.73;15.73;;;10.40;99.90;;;;;;4894593;29;20442;-76
2023/04/14 05:14:37;;;;;;;24.42;14.52;;;10.50;99.90;;;;;;4893919;29;20108;-77
2023/04/14 05:17:04;;;;;;;24.10;15.85;;;10.50;99.90;;;;;;4894171;29;20069;-76
2023/04/14 05:19:32;;;;;;;21.80;13.85;;;10.40;99.90;;;;;;4893126;29;20048;-77
2023/04/14 05:21:59;;;;;;;21.70;14.30;;;10.40;99.90;;;;;;4893454;29;20517;-75
2023/04/14 05:24:26;;;;;;;19.25;11.30;;;10.50;99.90;;;;;;4869791;29;20096;-78
2023/04/14 05:26:57;;;;;;;18.67;11.23;;;10.40;99.90;;;;;;4893311;29;20584;-77
2023/04/14 05:29:25;;;;;;;19.20;11.52;;;10.40;99.90;;;;;;4894234;29;20695;-74
2023/04/14 05:31:53;;;;;;;15.07;8.48;;;10.50;99.90;;;;;;4894256;29;20052;-75
2023/04/14 05:34:20;;;;;;;14.60;7.88;;;10.40;99.90;;;;;;4893031;29;20048;-74
2023/04/14 05:36:47;;;;;;;11.15;4.65;;;10.40;99.90;;;;;;4894543;29;20049;-75
2023/04/14 05:39:15;;;;;;;10.18;5.60;;;10.50;99.90;;;;;;4893889;29;20067;-74
2023/04/14 05:41:42;;;;;;;15.15;8.35;;;10.40;99.90;;;;;;4906532;29;20112;-75
2023/04/14 05:44:11;;;;;;;17.50;7.78;;;10.60;99.90;;;;;;4882910;29;20061;-77
2023/04/14 05:46:40;;;;;;;12.82;7.78;;;10.60;99.90;;;;;;4915277;29;20035;-75
2023/04/14 05:49:07;;;;;;;12.25;6.90;;;10.70;99.90;;;;;;4915140;29;20081;-76
2023/04/14 05:51:36;;;;;;;15.30;6.95;;;10.80;99.90;;;;;;4915377;29;20049;-75
2023/04/14 05:54:03;;;;;;;11.07;7.43;;;10.90;99.90;;;;;;4885356;29;20045;-75
2023/04/14 05:56:31;;;;;;;14.57;7.30;;;10.90;99.90;;;;;;4898340;29;20054;-75
2023/04/14 05:58:58;;;;;;;9.95;5.53;;;11.00;99.90;;;;;;4897538;29;20055;-76
2023/04/14 06:01:26;;;;;;;8.50;5.03;;;11.00;99.90;;;;;;4903556;29;20048;-76
2023/04/14 06:04:02;;;;;;;10.65;7.13;;;11.10;99.90;;;;;;4899307;29;20052;-75
2023/04/14 06:06:31;;;;;;;;;;;11.00;99.90;;;;;;4903436;29;20056;-75
2023/04/14 06:08:58;;;;;;;9.27;6.15;;;11.00;99.90;;;;;;4897590;29;19923;-74
2023/04/14 06:11:27;;;;;;;12.80;8.57;;;11.00;99.90;;;;;;4897172;29;20048;-75
2023/04/14 06:13:54;;;;;;;16.00;10.32;;;11.00;99.90;;;;;;4897221;29;20075;-75
2023/04/14 06:16:21;;;;;;;14.15;9.40;;;10.90;99.90;;;;;;4890977;29;20116;-75
2023/04/14 06:18:49;;;;;;;13.25;8.77;;;10.90;99.90;;;;;;4895735;29;20069;-77
2023/04/14 06:21:17;;;;;;;15.30;10.38;;;10.90;99.90;;;;;;4906087;29;20073;-77
2023/04/14 06:23:45;;;;;;;13.95;9.43;;;11.00;99.90;;;;;;4904828;29;20572;-76
2023/04/14 06:26:12;;;;;;;14.93;10.10;;;11.00;99.90;;;;;;4902255;29;20074;-76
2023/04/14 06:28:40;;;;;;;12.00;7.75;;;11.10;99.90;;;;;;4910868;29;20070;-76
2023/04/14 06:31:07;;;;;;;22.13;15.23;;;11.10;99.90;;;;;;4904070;29;20040;-76
2023/04/14 06:33:34;;;;;;;15.10;10.18;;;11.10;99.90;;;;;;4898974;29;20947;-77
2023/04/14 06:36:02;;;;;;;14.38;9.35;;;11.10;99.90;;;;;;4896552;29;20041;-77
2023/04/14 06:38:31;;;;;;;11.23;7.30;;;11.20;99.90;;;;;;4898080;29;20044;-76
2023/04/14 06:40:58;;;;;;;12.70;8.60;;;11.30;99.90;;;;;;4895307;29;20048;-75
2023/04/14 06:43:27;;;;;;;20.30;12.30;;;11.40;99.90;;;;;;4895911;29;20139;-75
2023/04/14 06:45:54;;;;;;;18.25;9.93;;;11.50;99.90;;;;;;4896947;29;20435;-77
2023/04/14 06:48:22;;;;;;;14.65;9.48;;;11.60;99.90;;;;;;4897183;29;20498;-77
2023/04/14 06:50:54;;;;;;;13.25;8.93;;;11.70;99.90;;;;;;4900301;29;20055;-77
2023/04/14 06:53:22;;;;;;;15.00;8.65;;;11.90;99.90;;;;;;4899763;29;20060;-76
2023/04/14 06:55:57;;;;;;;15.13;9.57;;;12.10;99.90;;;;;;4899310;29;20632;-76
2023/04/14 06:58:25;;;;;;;15.88;11.63;;;12.30;99.90;;;;;;4880800;29;20050;-76
2023/04/14 07:00:56;;;;;;;21.83;12.68;;;12.50;99.90;;;;;;4899880;29;20423;-75
2023/04/14 07:03:23;;;;;;;20.23;12.35;;;12.50;99.90;;;;;;4880044;29;20574;-77
2023/04/14 07:05:51;;;;;;;21.33;13.88;;;12.30;99.90;;;;;;4900464;29;20045;-77
2023/04/14 07:08:19;;;;;;;20.10;13.82;;;12.20;99.90;;;;;;4916841;29;20041;-75
2023/04/14 07:10:59;;;;;;;26.45;17.25;;;12.00;99.90;;;;;;4912019;29;20040;-77
2023/04/14 07:13:27;;;;;;;28.27;18.17;;;11.90;99.90;;;;;;4897831;29;20397;-76
2023/04/14 07:15:55;;;;;;;24.73;16.17;;;11.70;99.90;;;;;;4907313;29;20048;-76
2023/04/14 07:18:23;;;;;;;15.23;8.95;;;11.70;99.90;;;;;;4899102;29;20537;-76
2023/04/14 07:20:51;;;;;;;10.70;5.95;;;11.70;99.90;;;;;;4879751;29;20048;-77
2023/04/14 07:23:19;;;;;;;9.00;5.45;;;11.70;99.90;;;;;;4878726;29;20437;-78
2023/04/14 07:25:51;;;;;;;9.38;5.88;;;11.70;99.90;;;;;;4894238;29;20112;-77
2023/04/14 07:28:19;;;;;;;13.80;5.55;;;11.70;99.90;;;;;;4895600;29;20092;-76
2023/04/14 07:30:47;;;;;;;7.28;4.85;;;11.80;99.90;;;;;;4879694;29;20051;-79
2023/04/14 07:33:17;;;;;;;14.10;6.57;;;11.90;99.90;;;;;;4896196;29;20068;-77
2023/04/14 07:35:44;;;;;;;12.35;7.65;;;11.90;99.90;;;;;;4895345;29;20515;-76
2023/04/14 07:38:12;;;;;;;14.18;8.18;;;12.10;99.90;;;;;;4896022;29;20053;-76
2023/04/14 07:40:40;;;;;;;13.27;7.55;;;12.20;99.90;;;;;;4895248;29;20051;-76
2023/04/14 07:43:09;;;;;;;19.92;10.32;;;12.30;99.90;;;;;;4895200;29;20036;-77
2023/04/14 07:45:37;;;;;;;28.77;17.88;;;12.40;99.90;;;;;;4882337;29;20068;-76
2023/04/14 07:48:04;;;;;;;16.92;10.43;;;12.50;99.90;;;;;;4900513;29;20139;-77
2023/04/14 07:50:37;;;;;;;21.10;12.23;;;12.60;99.90;;;;;;4879379;29;20051;-77
2023/04/14 07:53:05;;;;;;;26.02;15.90;;;12.60;99.90;;;;;;4898592;29;20043;-77
2023/04/14 07:55:33;;;;;;;33.92;21.95;;;12.70;99.90;;;;;;4895822;29;20124;-78
2023/04/14 07:58:00;;;;;;;30.75;20.67;;;12.70;99.90;;;;;;4895268;29;20486;-76
2023/04/14 08:00:29;;;;;;;40.90;23.30;;;12.70;99.90;;;;;;4897016;29;20055;-77
2023/04/14 08:02:56;;;;;;;36.40;22.40;;;12.80;99.90;;;;;;4896798;29;20136;-78
2023/04/14 08:05:23;;;;;;;30.17;23.80;;;12.90;99.90;;;;;;4878993;29;20078;-78
2023/04/14 08:07:51;;;;;;;29.92;20.90;;;12.90;99.90;;;;;;4895986;29;20045;-76
2023/04/14 08:10:18;;;;;;;30.80;18.80;;;12.90;99.90;;;;;;4894888;29;20076;-78
2023/04/14 08:12:46;;;;;;;36.60;20.73;;;13.00;99.90;;;;;;4896072;29;20041;-78
2023/04/14 08:15:13;;;;;;;40.50;21.60;;;13.10;99.90;;;;;;4896904;29;20520;-75
2023/04/14 08:17:42;;;;;;;36.67;21.02;;;13.20;99.90;;;;;;4884839;29;20044;-78
2023/04/14 08:20:10;;;;;;;47.10;22.13;;;13.30;99.90;;;;;;4894090;29;20048;-77
2023/04/14 08:22:38;;;;;;;65.80;25.77;;;13.50;99.90;;;;;;4886324;29;20108;-77
2023/04/14 08:25:06;;;;;;;66.85;25.55;;;13.50;99.90;;;;;;4894930;29;20083;-76
2023/04/14 08:27:33;;;;;;;79.32;27.77;;;13.50;99.90;;;;;;4879373;29;20147;-76
2023/04/14 08:30:01;;;;;;;73.25;26.38;;;13.60;99.90;;;;;;4902849;29;20323;-76
2023/04/14 08:32:28;;;;;;;63.70;24.45;;;13.70;99.90;;;;;;4891638;29;20059;-76
2023/04/14 08:34:58;;;;;;;67.05;26.45;;;13.80;99.90;;;;;;4878991;29;20049;-74
2023/04/14 08:37:25;;;;;;;59.50;24.90;;;13.90;99.90;;;;;;4896342;29;20061;-76
2023/04/14 08:39:52;;;;;;;53.70;21.77;;;13.80;99.90;;;;;;4895761;29;20404;-78
2023/04/14 08:42:20;;;;;;;46.65;20.55;;;13.80;99.90;;;;;;4895762;29;20052;-77
2023/04/14 08:44:50;;;;;;;45.08;18.83;;;13.80;99.90;;;;;;4879294;29;20048;-79
2023/04/14 08:47:19;;;;;;;40.50;19.27;;;13.80;99.90;;;;;;4879494;29;20040;-76
2023/04/14 08:49:54;;;;;;;36.00;16.55;;;13.80;99.90;;;;;;4896544;29;20468;-77
2023/04/14 08:52:27;;;;;;;40.00;16.27;;;13.80;99.90;;;;;;4894906;29;20104;-77
2023/04/14 08:54:57;;;;;;;36.25;15.48;;;13.80;99.90;;;;;;4896686;29;20449;-76
2023/04/14 08:57:26;;;;;;;38.17;15.95;;;14.00;99.90;;;;;;4880379;29;20040;-76
2023/04/14 08:59:56;;;;;;;38.05;18.02;;;14.30;99.90;;;;;;4896209;29;20413;-77
2023/04/14 09:02:25;;;;;;;39.60;18.30;;;14.40;99.90;;;;;;4897414;29;20112;-77
2023/04/14 09:04:53;;;;;;;40.35;17.67;;;14.40;99.90;;;;;;4879477;29;20041;-76
2023/04/14 09:07:23;;;;;;;50.97;21.92;;;14.50;99.90;;;;;;4896028;29;20052;-75
2023/04/14 09:09:50;;;;;;;42.15;20.88;;;14.60;99.90;;;;;;4896511;29;20374;-77
2023/04/14 09:12:19;;;;;;;44.28;19.30;;;14.80;99.90;;;;;;4895016;29;20057;-78
2023/04/14 09:14:46;;;;;;;38.70;17.10;;;14.90;99.90;;;;;;4894461;29;20060;-76
2023/04/14 09:17:13;;;;;;;46.95;19.40;;;14.60;99.90;;;;;;4896081;29;20123;-77
2023/04/14 09:19:41;;;;;;;46.25;18.30;;;14.30;99.90;;;;;;4895645;29;20048;-76
2023/04/14 09:22:10;;;;;;;44.08;18.88;;;14.30;99.90;;;;;;4895166;29;20037;-75
2023/04/14 09:24:38;;;;;;;41.25;18.25;;;14.40;99.90;;;;;;4897436;29;20057;-76
2023/04/14 09:27:06;;;;;;;42.13;19.95;;;14.40;99.90;;;;;;4902463;29;20055;-76
2023/04/14 09:29:35;;;;;;;43.22;20.52;;;14.30;99.90;;;;;;4902200;29;20048;-77
2023/04/14 09:32:04;;;;;;;42.17;19.30;;;14.50;99.90;;;;;;4900200;29;20100;-77
2023/04/14 09:34:32;;;;;;;47.45;20.80;;;14.80;99.90;;;;;;4881570;29;20161;-77
2023/04/14 09:37:02;;;;;;;45.78;20.73;;;15.00;99.90;;;;;;4898789;29;20048;-77
2023/04/14 09:39:30;;;;;;;52.17;20.27;;;15.10;99.90;;;;;;4881107;29;20132;-75
2023/04/14 09:41:59;;;;;;;53.58;24.08;;;15.40;99.90;;;;;;4898286;29;20064;-77
2023/04/14 09:44:26;;;;;;;52.70;23.60;;;15.60;99.90;;;;;;4899231;29;20055;-76
2023/04/14 09:46:57;;;;;;;49.22;22.88;;;15.90;99.90;;;;;;4898451;29;20056;-76
2023/04/14 09:49:25;;;;;;;43.05;21.10;;;16.00;99.90;;;;;;4898067;29;20425;-78
2023/04/14 09:51:54;;;;;;;41.05;19.75;;;16.40;99.90;;;;;;4882085;29;20501;-77
2023/04/14 09:54:25;;;;;;;41.95;19.77;;;16.50;99.90;;;;;;4899229;29;20084;-77
2023/04/14 09:56:53;;;;;;;36.35;18.13;;;16.60;99.90;;;;;;4897254;29;20059;-76
2023/04/14 09:59:33;;;;;;;37.67;19.77;;;16.90;99.90;;;;;;4881284;29;20165;-76
2023/04/14 10:02:03;;;;;;;31.80;17.25;;;17.30;99.90;;;;;;4885555;29;20104;-77
2023/04/14 10:04:30;;;;;;;33.55;18.42;;;17.70;99.90;;;;;;4916255;29;20112;-77
2023/04/14 10:06:58;;;;;;;29.27;16.83;;;18.00;99.90;;;;;;4906580;29;20049;-80
2023/04/14 10:09:27;;;;;;;27.20;14.10;;;18.30;95.80;;;;;;4898324;29;20172;-76
2023/04/14 10:12:08;;;;;;;27.88;15.40;;;18.40;91.00;;;;;;4897331;29;20044;-77
2023/04/14 10:14:37;;;;;;;26.42;13.10;;;18.20;88.80;;;;;;4896974;29;20440;-77
2023/04/14 10:17:05;;;;;;;22.00;11.48;;;18.10;81.30;;;;;;4896509;29;20076;-75
2023/04/14 10:19:32;;;;;;;20.67;11.88;;;17.60;80.00;;;;;;4897879;29;20060;-76
2023/04/14 10:22:00;;;;;;;21.65;11.48;;;17.40;82.80;;;;;;4895554;29;20402;-76
2023/04/14 10:24:28;;;;;;;17.88;9.40;;;17.50;83.50;;;;;;4896800;29;20056;-76
2023/04/14 10:26:55;;;;;;;16.33;8.18;;;17.40;81.40;;;;;;4898300;29;20075;-77
2023/04/14 10:29:23;;;;;;;15.73;7.85;;;17.20;77.00;;;;;;4907643;29;20049;-79
2023/04/14 10:31:55;;;;;;;15.48;7.88;;;17.40;71.20;;;;;;4911946;29;20120;-75
2023/04/14 10:34:24;;;;;;;18.45;8.38;;;17.70;72.20;;;;;;4897797;29;20053;-78
2023/04/14 10:36:53;;;;;;;13.52;7.50;;;17.80;72.80;;;;;;4896488;29;20044;-77
2023/04/14 10:39:23;;;;;;;13.35;7.15;;;17.60;71.60;;;;;;4879858;29;20048;-76
2023/04/14 10:41:52;;;;;;;10.77;6.10;;;17.70;72.70;;;;;;4900142;29;20493;-75
2023/04/14 10:44:27;;;;;;;15.57;5.80;;;17.70;69.20;;;;;;4907133;29;20059;-74
2023/04/14 10:46:56;;;;;;;9.05;5.90;;;17.70;65.70;;;;;;4890018;29;20044;-76
2023/04/14 10:49:29;;;;;;;10.48;5.70;;;17.60;66.10;;;;;;4906257;29;20068;-76
2023/04/14 10:51:59;;;;;;;10.32;5.05;;;17.90;65.30;;;;;;4898353;29;20148;-76
2023/04/14 10:54:26;;;;;;;9.27;4.85;;;17.80;62.70;;;;;;4897192;29;20087;-77
2023/04/14 10:57:11;;;;;;;9.70;4.95;;;17.70;60.20;;;;;;4895854;29;20057;-76
2023/04/14 10:59:42;;;;;;;11.90;5.53;;;17.70;60.50;;;;;;4898082;29;20055;-77
2023/04/14 11:02:30;;;;;;;8.50;4.40;;;18.00;60.80;;;;;;4898436;29;20104;-74
2023/04/14 11:05:03;;;;;;;8.27;3.60;;;18.20;57.30;;;;;;4899313;29;20044;-75
2023/04/14 11:07:32;;;;;;;12.45;5.65;;;18.40;56.70;;;;;;4903191;29;20052;-76
2023/04/14 11:10:04;;;;;;;10.93;4.50;;;18.50;55.70;;;;;;4903354;29;20040;-75
2023/04/14 11:12:32;;;;;;;9.32;4.47;;;18.20;54.20;;;;;;4900678;29;20053;-77
2023/04/14 11:15:05;;;;;;;11.65;4.60;;;17.80;55.00;;;;;;4889999;29;20055;-75
2023/04/14 11:17:38;;;;;;;11.80;5.40;;;17.40;56.40;;;;;;4909652;29;20113;-76
2023/04/14 11:20:14;;;;;;;8.45;3.70;;;17.00;55.60;;;;;;4904578;29;20075;-78
2023/04/14 11:22:44;;;;;;;7.25;3.20;;;16.30;54.20;;;;;;4908676;29;20125;-76
2023/04/14 11:25:14;;;;;;;10.30;4.72;;;15.70;55.90;;;;;;4910071;29;20179;-76
2023/04/14 11:27:42;;;;;;;8.90;3.88;;;14.70;62.50;;;;;;4907170;29;20068;-75
2023/04/14 11:30:14;;;;;;;8.30;4.40;;;13.80;64.00;;;;;;4906379;29;20060;-74
2023/04/14 11:32:50;;;;;;;17.27;8.82;;;13.20;73.50;;;;;;4905819;29;20044;-74
2023/04/14 11:35:18;;;;;;;17.23;7.95;;;12.70;99.90;;;;;;4902981;29;20133;-74
2023/04/14 11:37:48;;;;;;;18.05;9.77;;;12.40;99.90;;;;;;4903811;29;20041;-74
2023/04/14 11:40:15;;;;;;;12.65;5.82;;;11.90;99.90;;;;;;4886091;29;20076;-76
2023/04/14 11:42:45;;;;;;;13.25;5.15;;;11.50;99.90;;;;;;4891002;29;20061;-75
2023/04/14 11:45:15;;;;;;;12.18;5.80;;;11.10;99.90;;;;;;4906306;29;20404;-75
2023/04/14 11:47:57;;;;;;;7.82;3.40;;;10.90;99.90;;;;;;4899862;29;20108;-75
2023/04/14 11:50:26;;;;;;;9.40;4.07;;;10.90;99.90;;;;;;4901314;29;20057;-76
2023/04/14 11:52:58;;;;;;;23.80;12.95;;;10.80;99.90;;;;;;4899762;29;20041;-75
2023/04/14 11:55:26;;;;;;;16.17;8.35;;;10.90;99.90;;;;;;4901661;29;20049;-76
2023/04/14 11:57:54;;;;;;;17.55;9.65;;;11.00;99.90;;;;;;4900652;29;20041;-75
2023/04/14 12:00:23;;;;;;;20.20;11.00;;;11.20;99.90;;;;;;4901146;29;20516;-75
2023/04/14 12:02:52;;;;;;;22.02;10.55;;;11.40;99.90;;;;;;4883874;29;20089;-75
2023/04/14 12:05:22;;;;;;;36.00;21.52;;;11.60;99.90;;;;;;4900915;29;20148;-76
2023/04/14 12:07:50;;;;;;;42.25;23.20;;;12.20;99.90;;;;;;4900661;29;20067;-75
2023/04/14 12:10:18;;;;;;;14.82;9.68;;;12.70;99.90;;;;;;4885214;29;20112;-75
2023/04/14 12:12:45;;;;;;;19.85;10.35;;;13.20;99.90;;;;;;4905126;29;20040;-77
2023/04/14 12:15:14;;;;;;;17.55;10.23;;;13.40;99.90;;;;;;4900572;29;20048;-75
2023/04/14 12:17:42;;;;;;;17.30;9.90;;;13.40;99.90;;;;;;4900638;29;20052;-76
2023/04/14 12:20:16;;;;;;;12.15;6.78;;;13.60;99.90;;;;;;4901590;29;20135;-77
2023/04/14 12:22:44;;;;;;;14.35;8.20;;;14.20;99.90;;;;;;4898881;29;20052;-75
2023/04/14 12:25:13;;;;;;;15.85;8.73;;;14.50;99.90;;;;;;4897707;29;20080;-75
2023/04/14 12:27:41;;;;;;;10.60;5.75;;;14.60;99.90;;;;;;4884345;29;20082;-76
2023/04/14 12:30:09;;;;;;;9.85;4.70;;;14.60;99.90;;;;;;4905040;29;20108;-76
2023/04/14 12:32:40;;;;;;;6.45;3.25;;;14.40;95.30;;;;;;4899952;29;20068;-76
2023/04/14 12:35:09;;;;;;;8.13;3.38;;;14.50;93.70;;;;;;4899921;29;20072;-75
2023/04/14 12:37:40;;;;;;;6.55;3.20;;;14.40;96.00;;;;;;4898055;29;20065;-75
2023/04/14 12:40:09;;;;;;;7.78;2.72;;;14.50;99.90;;;;;;4890721;29;20083;-77
2023/04/14 12:42:45;;;;;;;7.22;2.40;;;14.70;96.10;;;;;;4898330;29;20441;-76
2023/04/14 12:45:14;;;;;;;10.07;3.65;;;14.90;84.10;;;;;;4896851;29;20052;-76